sensor_id;sensor_type;location;lat;lon;timestamp;pressure;altitude;pressure_sealevel;temperature;humidity
5954;BME280;3002;42.642;24.812;2023-02-03T00:01:31;96433.41;;;7.09;48.66
5954;BME280;3002;42.642;24.812;2023-02-03T00:03:56;96398.72;;;6.88;48.36
5954;BME280;3002;42.642;24.812;2023-02-03T00:06:22;96432.28;;;6.69;49.87
5954;BME280;3002;42.642;24.812;2023-02-03T00:08:48;96409.88;;;6.60;49.75
5954;BME280;3002;42.642;24.812;2023-02-03T00:11:18;96457.13;;;7.05;49.00
5954;BME280;3002;42.642;24.812;2023-02-03T00:13:44;96450.41;;;6.77;49.68
5954;BME280;3002;42.642;24.812;2023-02-03T00:16:09;96440.75;;;6.51;49.78
5954;BME280;3002;42.642;24.812;2023-02-03T00:18:35;96437.88;;;6.67;48.56
5954;BME280;3002;42.642;24.812;2023-02-03T00:21:00;96449.03;;;6.59;49.07
5954;BME280;3002;42.642;24.812;2023-02-03T00:23:25;96407.66;;;6.41;48.92
5954;BME280;3002;42.642;24.812;2023-02-03T00:25:54;96425.06;;;6.69;48.25
5954;BME280;3002;42.642;24.812;2023-02-03T00:28:19;96434.19;;;6.79;47.93
5954;BME280;3002;42.642;24.812;2023-02-03T00:30:45;96442.69;;;6.76;48.56
5954;BME280;3002;42.642;24.812;2023-02-03T00:33:10;96480.81;;;6.86;48.10
5954;BME280;3002;42.642;24.812;2023-02-03T00:35:37;96460.00;;;6.73;48.29
5954;BME280;3002;42.642;24.812;2023-02-03T00:38:04;96472.25;;;6.69;48.57
5954;BME280;3002;42.642;24.812;2023-02-03T00:40:29;96443.13;;;6.47;48.29
5954;BME280;3002;42.642;24.812;2023-02-03T00:42:55;96493.66;;;7.05;47.99
5954;BME280;3002;42.642;24.812;2023-02-03T00:45:20;96506.13;;;6.79;48.53
5954;BME280;3002;42.642;24.812;2023-02-03T00:47:46;96455.72;;;6.77;47.94
5954;BME280;3002;42.642;24.812;2023-02-03T00:50:11;96449.38;;;6.88;47.67
5954;BME280;3002;42.642;24.812;2023-02-03T00:52:37;96502.09;;;6.66;48.11
5954;BME280;3002;42.642;24.812;2023-02-03T00:55:04;96480.81;;;6.86;47.96
5954;BME280;3002;42.642;24.812;2023-02-03T00:57:30;96475.44;;;6.66;48.19
5954;BME280;3002;42.642;24.812;2023-02-03T00:59:55;96478.72;;;6.93;47.32
5954;BME280;3002;42.642;24.812;2023-02-03T01:02:22;96504.59;;;7.03;47.92
5954;BME280;3002;42.642;24.812;2023-02-03T01:04:48;96479.75;;;6.87;48.20
5954;BME280;3002;42.642;24.812;2023-02-03T01:07:14;96451.91;;;6.48;48.75
5954;BME280;3002;42.642;24.812;2023-02-03T01:09:39;96504.50;;;6.78;49.37
5954;BME280;3002;42.642;24.812;2023-02-03T01:12:05;96485.16;;;7.08;48.14
5954;BME280;3002;42.642;24.812;2023-02-03T01:14:31;96445.00;;;6.47;49.11
5954;BME280;3002;42.642;24.812;2023-02-03T01:16:56;96482.72;;;6.96;49.55
5954;BME280;3002;42.642;24.812;2023-02-03T01:19:23;96478.31;;;6.49;49.94
5954;BME280;3002;42.642;24.812;2023-02-03T01:21:49;96474.03;;;6.53;49.70
5954;BME280;3002;42.642;24.812;2023-02-03T01:24:14;96476.50;;;6.60;48.86
5954;BME280;3002;42.642;24.812;2023-02-03T01:26:40;96448.75;;;6.56;49.67
5954;BME280;3002;42.642;24.812;2023-02-03T01:29:11;96468.34;;;7.02;48.99
5954;BME280;3002;42.642;24.812;2023-02-03T01:31:39;96450.88;;;6.59;50.29
5954;BME280;3002;42.642;24.812;2023-02-03T01:34:06;96452.38;;;6.24;50.47
5954;BME280;3002;42.642;24.812;2023-02-03T01:36:33;96434.28;;;6.31;50.32
5954;BME280;3002;42.642;24.812;2023-02-03T01:38:59;96437.13;;;6.87;49.60
5954;BME280;3002;42.642;24.812;2023-02-03T01:41:28;96489.63;;;6.87;50.33
5954;BME280;3002;42.642;24.812;2023-02-03T01:43:56;96453.63;;;6.79;50.21
5954;BME280;3002;42.642;24.812;2023-02-03T01:46:35;96453.59;;;6.69;50.37
5954;BME280;3002;42.642;24.812;2023-02-03T01:49:24;96465.38;;;6.93;50.31
5954;BME280;3002;42.642;24.812;2023-02-03T01:51:51;96443.44;;;6.61;50.62
5954;BME280;3002;42.642;24.812;2023-02-03T01:54:24;96437.31;;;6.55;51.07
5954;BME280;3002;42.642;24.812;2023-02-03T01:56:54;96446.59;;;6.53;51.42
5954;BME280;3002;42.642;24.812;2023-02-03T01:59:22;96421.03;;;6.52;51.97
5954;BME280;3002;42.642;24.812;2023-02-03T02:01:49;96465.31;;;6.68;52.16
5954;BME280;3002;42.642;24.812;2023-02-03T02:04:17;96445.03;;;6.57;50.83
5954;BME280;3002;42.642;24.812;2023-02-03T02:06:43;96453.31;;;6.60;51.70
5954;BME280;3002;42.642;24.812;2023-02-03T02:09:12;96453.84;;;6.62;51.69
5954;BME280;3002;42.642;24.812;2023-02-03T02:11:38;96409.97;;;6.17;51.32
5954;BME280;3002;42.642;24.812;2023-02-03T02:14:03;96416.56;;;6.67;51.23
5954;BME280;3002;42.642;24.812;2023-02-03T02:16:40;96462.91;;;6.66;51.79
5954;BME280;3002;42.642;24.812;2023-02-03T02:36:24;96445.34;;;6.76;49.77
5954;BME280;3002;42.642;24.812;2023-02-03T02:41:38;96460.25;;;6.66;51.27
5954;BME280;3002;42.642;24.812;2023-02-03T02:44:15;96423.41;;;6.38;51.41
5954;BME280;3002;42.642;24.812;2023-02-03T02:46:52;96415.69;;;6.47;51.64
5954;BME280;3002;42.642;24.812;2023-02-03T02:49:38;96423.16;;;6.44;52.01
5954;BME280;3002;42.642;24.812;2023-02-03T02:52:07;96453.03;;;6.57;52.49
5954;BME280;3002;42.642;24.812;2023-02-03T02:54:38;96459.97;;;6.63;54.81
5954;BME280;3002;42.642;24.812;2023-02-03T02:57:05;96480.47;;;6.05;57.18
5954;BME280;3002;42.642;24.812;2023-02-03T02:59:34;96459.75;;;6.07;57.91
5954;BME280;3002;42.642;24.812;2023-02-03T03:01:59;96503.50;;;6.26;60.23
5954;BME280;3002;42.642;24.812;2023-02-03T03:04:27;96488.31;;;6.27;60.41
5954;BME280;3002;42.642;24.812;2023-02-03T03:07:00;96507.06;;;6.42;60.42
5954;BME280;3002;42.642;24.812;2023-02-03T03:09:42;96534.16;;;6.34;60.67
5954;BME280;3002;42.642;24.812;2023-02-03T03:12:14;96536.75;;;6.24;60.20
5954;BME280;3002;42.642;24.812;2023-02-03T03:14:44;96541.66;;;6.00;60.26
5954;BME280;3002;42.642;24.812;2023-02-03T03:17:17;96564.66;;;6.16;59.92
5954;BME280;3002;42.642;24.812;2023-02-03T03:19:49;96580.94;;;6.62;59.29
5954;BME280;3002;42.642;24.812;2023-02-03T03:22:19;96536.69;;;6.08;58.83
5954;BME280;3002;42.642;24.812;2023-02-03T03:24:50;96593.66;;;6.50;61.07
5954;BME280;3002;42.642;24.812;2023-02-03T03:27:22;96532.06;;;5.99;63.69
5954;BME280;3002;42.642;24.812;2023-02-03T03:30:01;96581.31;;;5.96;64.04
5954;BME280;3002;42.642;24.812;2023-02-03T03:32:28;96573.41;;;6.06;62.53
5954;BME280;3002;42.642;24.812;2023-02-03T03:34:57;96562.50;;;6.08;60.59
5954;BME280;3002;42.642;24.812;2023-02-03T03:39:56;96573.91;;;6.03;62.39
5954;BME280;3002;42.642;24.812;2023-02-03T03:47:43;96592.91;;;6.17;59.61
5954;BME280;3002;42.642;24.812;2023-02-03T03:50:18;96579.41;;;5.92;59.74
5954;BME280;3002;42.642;24.812;2023-02-03T03:52:47;96585.84;;;6.38;59.18
5954;BME280;3002;42.642;24.812;2023-02-03T03:55:15;96586.06;;;6.26;59.08
5954;BME280;3002;42.642;24.812;2023-02-03T03:57:52;96576.50;;;6.30;57.99
5954;BME280;3002;42.642;24.812;2023-02-03T04:00:20;96581.22;;;6.18;58.12
5954;BME280;3002;42.642;24.812;2023-02-03T04:02:51;96595.72;;;6.37;57.97
5954;BME280;3002;42.642;24.812;2023-02-03T04:05:18;96595.97;;;5.99;61.84
5954;BME280;3002;42.642;24.812;2023-02-03T04:07:45;96627.50;;;6.17;61.24
5954;BME280;3002;42.642;24.812;2023-02-03T04:10:33;96612.38;;;5.90;66.07
5954;BME280;3002;42.642;24.812;2023-02-03T04:12:59;96604.16;;;5.65;72.64
5954;BME280;3002;42.642;24.812;2023-02-03T04:15:24;96612.56;;;5.52;77.53
5954;BME280;3002;42.642;24.812;2023-02-03T04:17:50;96598.38;;;5.19;80.67
5954;BME280;3002;42.642;24.812;2023-02-03T04:20:16;96582.22;;;5.26;80.29
5954;BME280;3002;42.642;24.812;2023-02-03T04:22:42;96613.59;;;5.51;81.83
5954;BME280;3002;42.642;24.812;2023-02-03T04:25:07;96568.13;;;5.52;78.33
5954;BME280;3002;42.642;24.812;2023-02-03T04:27:33;96616.25;;;5.78;78.42
5954;BME280;3002;42.642;24.812;2023-02-03T04:29:59;96595.75;;;5.46;77.78
5954;BME280;3002;42.642;24.812;2023-02-03T04:32:25;96614.66;;;5.50;78.10
5954;BME280;3002;42.642;24.812;2023-02-03T04:34:50;96616.19;;;5.73;77.09
5954;BME280;3002;42.642;24.812;2023-02-03T04:37:16;96631.50;;;5.60;75.69
5954;BME280;3002;42.642;24.812;2023-02-03T04:39:41;96592.47;;;5.66;74.48
5954;BME280;3002;42.642;24.812;2023-02-03T04:42:07;96615.91;;;5.69;73.65
5954;BME280;3002;42.642;24.812;2023-02-03T04:44:32;96623.22;;;5.84;71.13
5954;BME280;3002;42.642;24.812;2023-02-03T04:46:58;96618.81;;;5.41;70.06
5954;BME280;3002;42.642;24.812;2023-02-03T04:49:23;96619.06;;;5.66;70.38
5954;BME280;3002;42.642;24.812;2023-02-03T04:51:49;96631.06;;;5.69;71.23
5954;BME280;3002;42.642;24.812;2023-02-03T04:54:14;96622.44;;;5.56;70.92
5954;BME280;3002;42.642;24.812;2023-02-03T04:56:40;96634.63;;;5.52;74.70
5954;BME280;3002;42.642;24.812;2023-02-03T04:59:06;96666.03;;;5.55;78.40
5954;BME280;3002;42.642;24.812;2023-02-03T05:01:32;96678.63;;;5.16;84.61
5954;BME280;3002;42.642;24.812;2023-02-03T05:03:57;96677.81;;;5.16;86.97
5954;BME280;3002;42.642;24.812;2023-02-03T05:06:27;96699.88;;;5.38;88.06
5954;BME280;3002;42.642;24.812;2023-02-03T05:08:54;96677.47;;;4.90;94.15
5954;BME280;3002;42.642;24.812;2023-02-03T05:11:20;96699.69;;;5.45;93.08
5954;BME280;3002;42.642;24.812;2023-02-03T05:13:46;96674.00;;;5.28;93.67
5954;BME280;3002;42.642;24.812;2023-02-03T05:16:11;96695.88;;;5.35;94.76
5954;BME280;3002;42.642;24.812;2023-02-03T05:18:37;96674.19;;;5.22;96.26
5954;BME280;3002;42.642;24.812;2023-02-03T05:21:02;96696.91;;;5.13;99.54
5954;BME280;3002;42.642;24.812;2023-02-03T05:23:28;96662.03;;;4.87;97.94
5954;BME280;3002;42.642;24.812;2023-02-03T05:25:53;96706.44;;;5.30;97.09
5954;BME280;3002;42.642;24.812;2023-02-03T05:28:19;96696.97;;;5.40;94.07
5954;BME280;3002;42.642;24.812;2023-02-03T05:30:44;96679.00;;;5.25;96.75
5954;BME280;3002;42.642;24.812;2023-02-03T05:33:10;96675.53;;;5.24;95.20
5954;BME280;3002;42.642;24.812;2023-02-03T05:35:35;96692.28;;;5.47;93.32
5954;BME280;3002;42.642;24.812;2023-02-03T05:38:01;96659.97;;;5.11;93.49
5954;BME280;3002;42.642;24.812;2023-02-03T05:40:26;96696.22;;;5.44;90.28
5954;BME280;3002;42.642;24.812;2023-02-03T05:43:11;96685.91;;;5.48;85.07
5954;BME280;3002;42.642;24.812;2023-02-03T05:45:37;96685.66;;;5.05;89.23
5954;BME280;3002;42.642;24.812;2023-02-03T05:48:02;96684.06;;;5.26;88.09
5954;BME280;3002;42.642;24.812;2023-02-03T05:50:29;96699.16;;;5.43;84.79
5954;BME280;3002;42.642;24.812;2023-02-03T05:53:03;96742.19;;;5.40;80.16
5954;BME280;3002;42.642;24.812;2023-02-03T05:55:30;96710.59;;;5.65;73.67
5954;BME280;3002;42.642;24.812;2023-02-03T05:57:56;96726.47;;;5.38;70.69
5954;BME280;3002;42.642;24.812;2023-02-03T06:00:23;96721.72;;;5.62;68.91
5954;BME280;3002;42.642;24.812;2023-02-03T06:02:52;96727.38;;;5.93;65.31
5954;BME280;3002;42.642;24.812;2023-02-03T06:05:19;96750.56;;;5.70;65.49
5954;BME280;3002;42.642;24.812;2023-02-03T06:07:45;96706.59;;;5.89;63.44
5954;BME280;3002;42.642;24.812;2023-02-03T06:10:10;96729.31;;;6.24;64.10
5954;BME280;3002;42.642;24.812;2023-02-03T06:12:39;96699.81;;;5.77;64.33
5954;BME280;3002;42.642;24.812;2023-02-03T06:15:05;96729.06;;;5.77;63.03
5954;BME280;3002;42.642;24.812;2023-02-03T06:17:30;96756.78;;;6.03;63.95
5954;BME280;3002;42.642;24.812;2023-02-03T06:19:56;96731.91;;;5.92;63.66
5954;BME280;3002;42.642;24.812;2023-02-03T06:22:22;96740.75;;;5.98;63.90
5954;BME280;3002;42.642;24.812;2023-02-03T06:24:47;96758.59;;;5.53;64.80
5954;BME280;3002;42.642;24.812;2023-02-03T06:27:16;96735.00;;;6.06;63.17
5954;BME280;3002;42.642;24.812;2023-02-03T06:29:41;96738.97;;;6.30;62.49
5954;BME280;3002;42.642;24.812;2023-02-03T06:32:08;96765.63;;;6.67;62.62
5954;BME280;3002;42.642;24.812;2023-02-03T06:34:33;96759.84;;;6.43;63.33
5954;BME280;3002;42.642;24.812;2023-02-03T06:36:59;96735.72;;;6.28;63.13
5954;BME280;3002;42.642;24.812;2023-02-03T06:39:25;96731.44;;;6.54;63.56
5954;BME280;3002;42.642;24.812;2023-02-03T06:41:50;96721.53;;;6.50;63.28
5954;BME280;3002;42.642;24.812;2023-02-03T06:44:17;96720.78;;;6.59;61.54
5954;BME280;3002;42.642;24.812;2023-02-03T06:46:42;96704.03;;;6.27;60.94
5954;BME280;3002;42.642;24.812;2023-02-03T06:49:08;96751.78;;;6.70;60.46
5954;BME280;3002;42.642;24.812;2023-02-03T06:51:33;96768.31;;;6.40;59.81
5954;BME280;3002;42.642;24.812;2023-02-03T06:53:59;96754.59;;;6.00;59.94
5954;BME280;3002;42.642;24.812;2023-02-03T06:56:25;96760.84;;;6.37;59.37
5954;BME280;3002;42.642;24.812;2023-02-03T06:58:50;96766.75;;;6.77;59.03
5954;BME280;3002;42.642;24.812;2023-02-03T07:01:15;96738.91;;;6.57;59.58
5954;BME280;3002;42.642;24.812;2023-02-03T07:03:41;96762.00;;;6.20;59.99
5954;BME280;3002;42.642;24.812;2023-02-03T07:06:06;96767.09;;;6.85;58.64
5954;BME280;3002;42.642;24.812;2023-02-03T07:08:32;96722.13;;;6.25;59.85
5954;BME280;3002;42.642;24.812;2023-02-03T07:10:57;96729.22;;;6.46;58.40
5954;BME280;3002;42.642;24.812;2023-02-03T07:13:23;96793.00;;;6.04;62.84
5954;BME280;3002;42.642;24.812;2023-02-03T07:15:49;96780.78;;;6.62;60.92
5954;BME280;3002;42.642;24.812;2023-02-03T07:18:15;96758.25;;;6.15;61.53
5954;BME280;3002;42.642;24.812;2023-02-03T07:20:42;96783.91;;;6.27;62.20
5954;BME280;3002;42.642;24.812;2023-02-03T07:23:07;96793.34;;;6.39;61.71
5954;BME280;3002;42.642;24.812;2023-02-03T07:25:33;96795.31;;;6.22;61.27
5954;BME280;3002;42.642;24.812;2023-02-03T07:27:58;96815.56;;;6.50;61.57
5954;BME280;3002;42.642;24.812;2023-02-03T07:30:24;96809.81;;;6.31;61.68
5954;BME280;3002;42.642;24.812;2023-02-03T07:32:50;96810.88;;;6.35;59.41
5954;BME280;3002;42.642;24.812;2023-02-03T07:35:17;96794.50;;;6.22;63.10
5954;BME280;3002;42.642;24.812;2023-02-03T07:37:43;96792.88;;;6.42;64.72
5954;BME280;3002;42.642;24.812;2023-02-03T07:40:10;96804.97;;;6.55;66.00
5954;BME280;3002;42.642;24.812;2023-02-03T07:42:47;96813.41;;;6.47;68.00
5954;BME280;3002;42.642;24.812;2023-02-03T07:45:15;96834.28;;;6.55;67.45
5954;BME280;3002;42.642;24.812;2023-02-03T07:47:42;96817.47;;;6.28;67.24
5954;BME280;3002;42.642;24.812;2023-02-03T07:50:09;96817.78;;;6.31;68.25
5954;BME280;3002;42.642;24.812;2023-02-03T07:52:35;96808.53;;;6.39;67.35
5954;BME280;3002;42.642;24.812;2023-02-03T07:55:01;96801.25;;;6.29;67.34
5954;BME280;3002;42.642;24.812;2023-02-03T07:57:26;96807.47;;;6.40;67.27
5954;BME280;3002;42.642;24.812;2023-02-03T07:59:52;96791.50;;;6.13;65.48
5954;BME280;3002;42.642;24.812;2023-02-03T08:02:17;96805.94;;;6.44;65.76
5954;BME280;3002;42.642;24.812;2023-02-03T08:04:43;96821.50;;;6.57;65.76
5954;BME280;3002;42.642;24.812;2023-02-03T08:07:08;96815.84;;;6.49;64.21
5954;BME280;3002;42.642;24.812;2023-02-03T08:09:34;96835.41;;;6.64;63.08
5954;BME280;3002;42.642;24.812;2023-02-03T08:11:59;96838.72;;;6.77;62.30
5954;BME280;3002;42.642;24.812;2023-02-03T08:14:25;96814.75;;;6.23;63.06
5954;BME280;3002;42.642;24.812;2023-02-03T08:16:50;96828.16;;;6.55;62.94
5954;BME280;3002;42.642;24.812;2023-02-03T08:19:15;96846.38;;;6.68;61.70
5954;BME280;3002;42.642;24.812;2023-02-03T08:21:41;96862.09;;;6.96;61.75
5954;BME280;3002;42.642;24.812;2023-02-03T08:24:07;96832.97;;;6.58;60.92
5954;BME280;3002;42.642;24.812;2023-02-03T08:26:32;96859.09;;;7.20;60.93
5954;BME280;3002;42.642;24.812;2023-02-03T08:28:58;96840.66;;;7.18;59.50
5954;BME280;3002;42.642;24.812;2023-02-03T08:31:23;96847.44;;;6.99;59.46
5954;BME280;3002;42.642;24.812;2023-02-03T08:33:48;96837.91;;;6.76;59.69
5954;BME280;3002;42.642;24.812;2023-02-03T08:36:14;96851.22;;;7.03;59.08
5954;BME280;3002;42.642;24.812;2023-02-03T08:38:40;96873.50;;;7.24;59.25
5954;BME280;3002;42.642;24.812;2023-02-03T08:41:15;96850.59;;;7.70;57.34
5954;BME280;3002;42.642;24.812;2023-02-03T08:43:43;96854.00;;;7.61;57.98
5954;BME280;3002;42.642;24.812;2023-02-03T08:46:10;96838.50;;;7.53;55.63
5954;BME280;3002;42.642;24.812;2023-02-03T08:48:36;96899.44;;;7.71;56.47
5954;BME280;3002;42.642;24.812;2023-02-03T08:51:07;96893.94;;;7.45;55.33
5954;BME280;3002;42.642;24.812;2023-02-03T08:53:33;96862.53;;;8.15;53.86
5954;BME280;3002;42.642;24.812;2023-02-03T08:55:59;96889.75;;;8.85;52.87
5954;BME280;3002;42.642;24.812;2023-02-03T08:58:28;96861.97;;;9.22;51.51
5954;BME280;3002;42.642;24.812;2023-02-03T09:00:53;96849.91;;;9.29;49.87
5954;BME280;3002;42.642;24.812;2023-02-03T09:03:19;96835.72;;;9.54;49.11
5954;BME280;3002;42.642;24.812;2023-02-03T09:05:45;96867.03;;;9.33;49.52
5954;BME280;3002;42.642;24.812;2023-02-03T09:08:10;96899.97;;;9.19;49.92
5954;BME280;3002;42.642;24.812;2023-02-03T09:10:36;96902.38;;;9.20;49.38
5954;BME280;3002;42.642;24.812;2023-02-03T09:13:01;96901.03;;;9.23;49.09
5954;BME280;3002;42.642;24.812;2023-02-03T09:15:27;96892.47;;;9.16;49.21
5954;BME280;3002;42.642;24.812;2023-02-03T09:17:52;96910.91;;;8.92;49.58
5954;BME280;3002;42.642;24.812;2023-02-03T09:20:19;96887.66;;;9.02;49.14
5954;BME280;3002;42.642;24.812;2023-02-03T09:22:45;96896.22;;;9.15;49.68
5954;BME280;3002;42.642;24.812;2023-02-03T09:25:10;96909.25;;;10.03;47.77
5954;BME280;3002;42.642;24.812;2023-02-03T09:27:36;96876.69;;;9.50;47.91
5954;BME280;3002;42.642;24.812;2023-02-03T09:30:02;96898.34;;;9.74;48.37
5954;BME280;3002;42.642;24.812;2023-02-03T09:32:28;96935.44;;;10.31;47.19
5954;BME280;3002;42.642;24.812;2023-02-03T09:34:53;96897.16;;;10.15;46.50
5954;BME280;3002;42.642;24.812;2023-02-03T09:37:18;96921.09;;;10.61;45.61
5954;BME280;3002;42.642;24.812;2023-02-03T09:39:44;96896.03;;;11.25;44.89
5954;BME280;3002;42.642;24.812;2023-02-03T09:42:25;96901.31;;;10.96;45.24
5954;BME280;3002;42.642;24.812;2023-02-03T09:45:04;96874.63;;;10.27;46.29
5954;BME280;3002;42.642;24.812;2023-02-03T09:47:35;96873.69;;;10.52;44.98
5954;BME280;3002;42.642;24.812;2023-02-03T09:50:11;96856.69;;;10.07;46.42
5954;BME280;3002;42.642;24.812;2023-02-03T09:52:42;96904.41;;;10.10;46.61
5954;BME280;3002;42.642;24.812;2023-02-03T09:55:29;96895.09;;;9.77;46.21
5954;BME280;3002;42.642;24.812;2023-02-03T10:00:36;96896.31;;;10.25;46.12
5954;BME280;3002;42.642;24.812;2023-02-03T10:03:59;96898.19;;;10.30;45.41
5954;BME280;3002;42.642;24.812;2023-02-03T10:06:35;96917.19;;;10.38;45.63
5954;BME280;3002;42.642;24.812;2023-02-03T10:12:22;96897.94;;;10.26;45.43
5954;BME280;3002;42.642;24.812;2023-02-03T10:17:37;96906.22;;;11.29;43.13
5954;BME280;3002;42.642;24.812;2023-02-03T10:20:13;96884.13;;;11.37;43.50
5954;BME280;3002;42.642;24.812;2023-02-03T10:22:44;96886.53;;;10.55;44.50
5954;BME280;3002;42.642;24.812;2023-02-03T10:27:38;96890.81;;;11.97;42.39
5954;BME280;3002;42.642;24.812;2023-02-03T10:30:09;96880.41;;;12.39;41.55
5954;BME280;3002;42.642;24.812;2023-02-03T10:32:42;96873.03;;;12.87;40.13
5954;BME280;3002;42.642;24.812;2023-02-03T10:35:14;96867.50;;;12.78;40.45
5954;BME280;3002;42.642;24.812;2023-02-03T10:37:50;96886.19;;;12.70;40.40
5954;BME280;3002;42.642;24.812;2023-02-03T10:40:21;96870.81;;;11.85;41.44
5954;BME280;3002;42.642;24.812;2023-02-03T10:42:49;96875.41;;;12.70;40.13
5954;BME280;3002;42.642;24.812;2023-02-03T10:45:36;96855.53;;;12.28;40.93
5954;BME280;3002;42.642;24.812;2023-02-03T10:48:04;96889.50;;;13.37;39.55
5954;BME280;3002;42.642;24.812;2023-02-03T10:50:31;96861.31;;;14.36;38.10
5954;BME280;3002;42.642;24.812;2023-02-03T10:53:25;96885.56;;;15.36;36.96
5954;BME280;3002;42.642;24.812;2023-02-03T10:58:29;96867.03;;;12.52;39.65
5954;BME280;3002;42.642;24.812;2023-02-03T11:01:06;96871.66;;;13.74;38.86
5954;BME280;3002;42.642;24.812;2023-02-03T11:03:33;96857.50;;;13.35;38.31
5954;BME280;3002;42.642;24.812;2023-02-03T11:08:30;96871.53;;;14.89;35.72
5954;BME280;3002;42.642;24.812;2023-02-03T11:11:02;96861.69;;;14.70;36.45
5954;BME280;3002;42.642;24.812;2023-02-03T11:13:29;96872.25;;;13.84;36.80
5954;BME280;3002;42.642;24.812;2023-02-03T11:16:05;96869.22;;;13.58;37.64
5954;BME280;3002;42.642;24.812;2023-02-03T11:21:20;96873.66;;;11.35;41.55
5954;BME280;3002;42.642;24.812;2023-02-03T11:24:02;96868.38;;;11.25;41.59
5954;BME280;3002;42.642;24.812;2023-02-03T11:26:39;96848.63;;;10.71;42.33
5954;BME280;3002;42.642;24.812;2023-02-03T11:29:18;96852.19;;;10.02;42.82
5954;BME280;3002;42.642;24.812;2023-02-03T11:31:50;96877.81;;;10.29;43.62
5954;BME280;3002;42.642;24.812;2023-02-03T11:34:19;96858.47;;;10.42;43.20
5954;BME280;3002;42.642;24.812;2023-02-03T11:36:48;96855.03;;;9.31;44.40
5954;BME280;3002;42.642;24.812;2023-02-03T11:39:27;96859.06;;;10.18;43.45
5954;BME280;3002;42.642;24.812;2023-02-03T11:41:53;96858.88;;;9.95;43.73
5954;BME280;3002;42.642;24.812;2023-02-03T11:46:48;96850.47;;;9.42;43.66
5954;BME280;3002;42.642;24.812;2023-02-03T11:55:19;96858.75;;;9.40;45.15
5954;BME280;3002;42.642;24.812;2023-02-03T12:00:47;96850.84;;;9.95;42.92
5954;BME280;3002;42.642;24.812;2023-02-03T12:06:42;96855.38;;;10.09;43.04
5954;BME280;3002;42.642;24.812;2023-02-03T12:18:10;96829.56;;;9.38;42.76
5954;BME280;3002;42.642;24.812;2023-02-03T12:31:31;96834.63;;;14.34;34.15
5954;BME280;3002;42.642;24.812;2023-02-03T12:36:39;96774.88;;;14.77;34.34
5954;BME280;3002;42.642;24.812;2023-02-03T12:39:14;96815.19;;;16.12;31.95
5954;BME280;3002;42.642;24.812;2023-02-03T12:41:49;96799.31;;;16.27;31.44
5954;BME280;3002;42.642;24.812;2023-02-03T12:44:23;96788.41;;;15.62;31.36
5954;BME280;3002;42.642;24.812;2023-02-03T12:47:03;96781.72;;;15.90;30.14
5954;BME280;3002;42.642;24.812;2023-02-03T12:49:44;96799.03;;;15.05;32.11
5954;BME280;3002;42.642;24.812;2023-02-03T12:52:26;96760.84;;;16.82;29.64
5954;BME280;3002;42.642;24.812;2023-02-03T12:57:55;96771.63;;;16.48;31.12
5954;BME280;3002;42.642;24.812;2023-02-03T13:00:46;96775.03;;;17.61;29.96
5954;BME280;3002;42.642;24.812;2023-02-03T13:03:34;96774.50;;;17.21;29.14
5954;BME280;3002;42.642;24.812;2023-02-03T13:06:11;96774.47;;;17.94;28.64
5954;BME280;3002;42.642;24.812;2023-02-03T13:11:19;96775.75;;;16.37;30.37
5954;BME280;3002;42.642;24.812;2023-02-03T13:13:51;96764.66;;;16.64;30.24
5954;BME280;3002;42.642;24.812;2023-02-03T13:16:24;96749.84;;;16.96;29.60
5954;BME280;3002;42.642;24.812;2023-02-03T13:18:58;96774.25;;;17.60;28.60
5954;BME280;3002;42.642;24.812;2023-02-03T13:21:27;96774.78;;;15.67;30.16
5954;BME280;3002;42.642;24.812;2023-02-03T13:23:53;96761.94;;;16.55;30.31
5954;BME280;3002;42.642;24.812;2023-02-03T13:32:14;96759.31;;;17.46;29.18
5954;BME280;3002;42.642;24.812;2023-02-03T13:34:50;96776.53;;;17.41;29.49
5954;BME280;3002;42.642;24.812;2023-02-03T13:43:11;96719.91;;;18.79;27.34
5954;BME280;3002;42.642;24.812;2023-02-03T13:45:47;96738.34;;;18.23;27.05
5954;BME280;3002;42.642;24.812;2023-02-03T13:48:21;96757.59;;;16.37;29.22
5954;BME280;3002;42.642;24.812;2023-02-03T13:50:50;96756.09;;;18.91;26.79
5954;BME280;3002;42.642;24.812;2023-02-03T13:53:26;96752.59;;;17.43;23.46
5954;BME280;3002;42.642;24.812;2023-02-03T13:55:59;96743.88;;;15.99;26.54
5954;BME280;3002;42.642;24.812;2023-02-03T13:58:28;96745.09;;;18.16;24.14
5954;BME280;3002;42.642;24.812;2023-02-03T14:05:50;96725.47;;;16.88;24.83
5954;BME280;3002;42.642;24.812;2023-02-03T14:14:39;96723.56;;;16.88;24.70
5954;BME280;3002;42.642;24.812;2023-02-03T14:16:51;96733.72;;;16.22;25.42
5954;BME280;3002;42.642;24.812;2023-02-03T14:21:51;96734.56;;;15.74;25.98
5954;BME280;3002;42.642;24.812;2023-02-03T14:24:19;96731.63;;;16.10;26.08
5954;BME280;3002;42.642;24.812;2023-02-03T14:26:48;96721.31;;;17.54;25.02
5954;BME280;3002;42.642;24.812;2023-02-03T14:29:34;96739.00;;;17.05;24.55
5954;BME280;3002;42.642;24.812;2023-02-03T14:34:32;96739.28;;;16.08;25.52
5954;BME280;3002;42.642;24.812;2023-02-03T14:48:35;96740.88;;;10.25;34.32
5954;BME280;3002;42.642;24.812;2023-02-03T14:54:18;96747.69;;;10.02;34.86
5954;BME280;3002;42.642;24.812;2023-02-03T14:57:03;96745.63;;;10.38;35.08
5954;BME280;3002;42.642;24.812;2023-02-03T15:02:25;96744.81;;;10.72;33.71
5954;BME280;3002;42.642;24.812;2023-02-03T15:07:44;96740.41;;;10.57;34.45
5954;BME280;3002;42.642;24.812;2023-02-03T15:10:25;96673.91;;;10.20;34.60
5954;BME280;3002;42.642;24.812;2023-02-03T15:12:52;96738.53;;;10.53;34.85
5954;BME280;3002;42.642;24.812;2023-02-03T15:17:46;96743.50;;;9.81;36.60
5954;BME280;3002;42.642;24.812;2023-02-03T15:20:29;96744.06;;;9.78;36.68
5954;BME280;3002;42.642;24.812;2023-02-03T15:22:55;96725.69;;;9.51;37.10
5954;BME280;3002;42.642;24.812;2023-02-03T15:25:21;96739.16;;;9.25;38.48
5954;BME280;3002;42.642;24.812;2023-02-03T15:27:49;96726.00;;;9.29;37.97
5954;BME280;3002;42.642;24.812;2023-02-03T15:30:23;96733.03;;;8.99;38.73
5954;BME280;3002;42.642;24.812;2023-02-03T15:33:06;96721.28;;;9.00;39.10
5954;BME280;3002;42.642;24.812;2023-02-03T15:35:33;96710.53;;;9.05;39.25
5954;BME280;3002;42.642;24.812;2023-02-03T15:38:12;96717.53;;;8.96;39.51
5954;BME280;3002;42.642;24.812;2023-02-03T15:40:43;96734.38;;;9.07;40.16
5954;BME280;3002;42.642;24.812;2023-02-03T15:43:19;96736.78;;;9.08;38.79
5954;BME280;3002;42.642;24.812;2023-02-03T15:48:30;96738.88;;;9.11;39.31
5954;BME280;3002;42.642;24.812;2023-02-03T15:51:07;96738.41;;;8.74;39.49
5954;BME280;3002;42.642;24.812;2023-02-03T15:59:03;96730.91;;;8.86;41.50